createdAt,value
2017-05-10T00:00:42.167Z,2.60
2017-05-10T00:03:09.467Z,2.70
2017-05-10T00:05:36.699Z,2.60
2017-05-10T00:08:03.948Z,2.60
2017-05-10T00:10:31.127Z,2.60
2017-05-10T00:12:58.348Z,2.60
2017-05-10T00:15:25.536Z,2.60
2017-05-10T00:17:52.712Z,2.60
2017-05-10T00:20:19.864Z,2.60
2017-05-10T00:22:47.101Z,2.50
2017-05-10T00:25:15.079Z,2.40
2017-05-10T00:27:42.639Z,2.50
2017-05-10T00:30:09.885Z,2.50
2017-05-10T00:32:37.101Z,2.60
2017-05-10T00:35:04.255Z,2.50
2017-05-10T00:37:31.548Z,2.40
2017-05-10T00:39:59.103Z,2.40
2017-05-10T00:42:26.276Z,2.50
2017-05-10T00:44:53.495Z,2.50
2017-05-10T00:47:20.771Z,2.30
2017-05-10T00:49:48.045Z,2.40
2017-05-10T00:52:15.275Z,2.40
2017-05-10T00:54:42.440Z,2.40
2017-05-10T00:57:09.702Z,2.40
2017-05-10T00:59:36.987Z,2.40
2017-05-10T01:02:04.900Z,2.40
2017-05-10T01:04:32.164Z,2.50
2017-05-10T01:06:59.335Z,2.50
2017-05-10T01:09:26.471Z,2.50
2017-05-10T01:11:53.757Z,2.50
2017-05-10T01:14:21.765Z,2.60
2017-05-10T01:16:48.945Z,2.60
2017-05-10T01:19:16.173Z,2.70
2017-05-10T01:21:43.505Z,2.70
2017-05-10T01:24:10.763Z,2.60
2017-05-10T01:26:37.971Z,2.50
2017-05-10T01:29:05.189Z,2.50
2017-05-10T01:31:32.589Z,2.50
2017-05-10T01:33:59.794Z,2.60
2017-05-10T01:36:27.039Z,2.60
2017-05-10T01:38:54.404Z,2.60
2017-05-10T01:41:21.652Z,2.60
2017-05-10T01:43:48.857Z,2.60
2017-05-10T01:46:16.319Z,2.60
2017-05-10T01:48:43.803Z,2.50
2017-05-10T01:51:11.084Z,2.50
2017-05-10T01:53:38.276Z,2.60
2017-05-10T01:56:05.644Z,2.50
2017-05-10T01:58:33.099Z,2.40
2017-05-10T02:01:00.298Z,2.50
2017-05-10T02:03:27.522Z,2.50
2017-05-10T02:05:54.884Z,2.50
2017-05-10T02:08:22.100Z,2.50
2017-05-10T02:10:49.380Z,2.50
2017-05-10T02:13:16.589Z,2.40
2017-05-10T02:15:44.721Z,2.30
2017-05-10T02:18:11.979Z,2.30
2017-05-10T02:20:39.176Z,2.30
2017-05-10T02:23:06.520Z,2.30
2017-05-10T02:25:33.884Z,2.30
2017-05-10T02:28:01.265Z,2.40
2017-05-10T02:30:28.645Z,2.30
2017-05-10T02:32:55.852Z,2.20
2017-05-10T02:35:23.034Z,2.10
2017-05-10T02:37:51.304Z,2.10
2017-05-10T02:40:18.670Z,2.10
2017-05-10T02:42:46.707Z,2.00
2017-05-10T02:45:14.033Z,2.10
2017-05-10T02:47:42.088Z,2.00
2017-05-10T02:50:09.972Z,2.00
2017-05-10T02:52:37.194Z,2.00
2017-05-10T02:55:05.243Z,1.90
2017-05-10T02:57:32.488Z,1.90
2017-05-10T02:59:59.808Z,1.90
2017-05-10T03:02:27.056Z,1.80
2017-05-10T03:04:54.484Z,1.80
2017-05-10T03:07:22.516Z,1.90
2017-05-10T03:09:49.770Z,1.90
2017-05-10T03:12:16.999Z,1.90
2017-05-10T03:14:44.525Z,1.80
2017-05-10T03:17:11.731Z,1.80
2017-05-10T03:19:38.876Z,1.80
2017-05-10T03:22:06.059Z,1.80
2017-05-10T03:24:33.265Z,1.70
2017-05-10T03:27:00.481Z,1.70
2017-05-10T03:29:28.424Z,1.70
2017-05-10T03:31:55.620Z,1.80
2017-05-10T03:34:22.936Z,1.90
2017-05-10T03:36:50.881Z,1.90
2017-05-10T03:39:18.094Z,1.90
2017-05-10T03:41:45.326Z,1.80
2017-05-10T03:44:12.467Z,1.80
2017-05-10T03:46:40.426Z,1.80
2017-05-10T03:49:08.348Z,1.80
2017-05-10T03:51:35.523Z,1.90
2017-05-10T03:54:02.808Z,1.90
2017-05-10T03:56:29.957Z,1.90
2017-05-10T03:58:57.136Z,2.00
2017-05-10T04:01:24.325Z,2.00
2017-05-10T04:03:51.469Z,1.90
2017-05-10T04:06:18.677Z,2.00
2017-05-10T04:08:45.862Z,1.90
2017-05-10T04:11:13.040Z,2.00
2017-05-10T04:13:40.976Z,2.10
2017-05-10T04:16:08.162Z,2.10
2017-05-10T04:18:35.360Z,2.20
2017-05-10T04:21:02.721Z,2.30
2017-05-10T04:23:29.904Z,2.30
2017-05-10T04:25:57.103Z,2.40
2017-05-10T04:28:24.305Z,2.50
2017-05-10T04:30:51.448Z,2.50
2017-05-10T04:33:18.600Z,2.60
2017-05-10T04:35:45.800Z,2.50
2017-05-10T04:38:12.997Z,2.50
2017-05-10T04:40:40.170Z,2.60
2017-05-10T04:43:07.474Z,2.80
2017-05-10T04:45:34.689Z,2.90
2017-05-10T04:48:01.944Z,3.00
2017-05-10T04:50:29.392Z,3.00
2017-05-10T04:52:56.641Z,3.20
2017-05-10T04:55:23.936Z,3.30
2017-05-10T04:57:51.161Z,3.50
2017-05-10T05:00:18.476Z,3.50
2017-05-10T05:02:46.499Z,3.60
2017-05-10T05:05:13.655Z,3.70
2017-05-10T05:07:40.925Z,3.90
2017-05-10T05:10:08.188Z,4.00
2017-05-10T05:12:36.201Z,4.30
2017-05-10T05:15:03.463Z,4.50
2017-05-10T05:17:30.749Z,4.70
2017-05-10T05:19:57.977Z,4.90
2017-05-10T05:22:25.180Z,5.10
2017-05-10T05:24:53.321Z,5.30
2017-05-10T05:27:20.552Z,5.60
2017-05-10T05:29:48.040Z,5.90
2017-05-10T05:32:16.065Z,6.10
2017-05-10T05:34:43.384Z,6.30
2017-05-10T05:37:11.389Z,6.50
2017-05-10T05:39:38.593Z,6.80
2017-05-10T05:42:06.563Z,7.00
2017-05-10T05:44:34.484Z,7.20
2017-05-10T05:47:01.648Z,7.50
2017-05-10T05:49:28.889Z,7.80
2017-05-10T05:51:56.064Z,7.90
2017-05-10T05:54:23.329Z,8.10
2017-05-10T05:56:51.323Z,8.30
2017-05-10T05:59:18.513Z,8.00
2017-05-10T06:01:45.659Z,8.20
2017-05-10T06:04:13.162Z,8.50
2017-05-10T06:06:40.335Z,8.80
2017-05-10T06:09:07.509Z,9.40
2017-05-10T06:11:35.029Z,10.00
2017-05-10T06:14:02.181Z,11.10
2017-05-10T06:16:29.348Z,12.10
2017-05-10T06:18:56.592Z,13.10
2017-05-10T06:21:23.765Z,13.70
2017-05-10T06:23:50.940Z,14.10
2017-05-10T06:26:18.167Z,14.30
2017-05-10T06:28:45.343Z,15.10
2017-05-10T06:31:12.539Z,15.40
2017-05-10T06:33:39.961Z,15.70
2017-05-10T06:36:07.176Z,16.70
2017-05-10T06:38:34.337Z,17.10
2017-05-10T06:41:01.540Z,17.70
2017-05-10T06:43:28.696Z,17.60
2017-05-10T06:45:55.888Z,18.40
2017-05-10T06:48:23.088Z,19.40
2017-05-10T06:50:50.324Z,20.30
2017-05-10T06:53:18.253Z,21.00
2017-05-10T06:55:45.495Z,19.80
2017-05-10T06:58:12.654Z,18.40
2017-05-10T07:00:39.825Z,18.40
2017-05-10T07:03:07.048Z,19.20
2017-05-10T07:05:34.208Z,19.10
2017-05-10T07:08:01.439Z,18.10
2017-05-10T07:10:28.656Z,18.30
2017-05-10T07:12:55.869Z,18.50
2017-05-10T07:15:23.357Z,18.30
2017-05-10T07:17:50.528Z,19.30
2017-05-10T07:20:17.831Z,18.60
2017-05-10T07:22:45.176Z,18.20
2017-05-10T07:25:12.424Z,17.70
2017-05-10T07:27:39.770Z,18.10
2017-05-10T07:30:07.171Z,17.80
2017-05-10T07:32:34.501Z,17.70
2017-05-10T07:35:03.233Z,16.70
2017-05-10T07:37:30.489Z,17.10
2017-05-10T07:39:57.698Z,16.60
2017-05-10T07:42:25.666Z,16.40
2017-05-10T07:44:53.056Z,15.40
2017-05-10T07:47:20.271Z,15.20
2017-05-10T07:49:48.252Z,15.20
2017-05-10T07:52:16.540Z,14.50
2017-05-10T07:54:43.729Z,14.50
2017-05-10T07:57:11.875Z,15.40
2017-05-10T07:59:39.360Z,16.20
2017-05-10T08:02:06.616Z,17.00
2017-05-10T08:04:33.908Z,16.50
2017-05-10T08:07:01.526Z,17.20
2017-05-10T08:09:28.758Z,17.60
2017-05-10T08:11:55.976Z,16.40
2017-05-10T08:14:23.898Z,16.60
2017-05-10T08:16:51.036Z,17.10
2017-05-10T08:19:18.254Z,17.30
2017-05-10T08:21:45.524Z,18.50
2017-05-10T08:24:12.713Z,17.50
2017-05-10T08:26:39.987Z,17.00
2017-05-10T08:29:07.218Z,17.00
2017-05-10T08:31:34.405Z,17.90
2017-05-10T08:34:07.504Z,16.60
2017-05-10T08:36:34.826Z,17.40
2017-05-10T08:39:02.817Z,17.90
2017-05-10T08:41:30.105Z,19.00
2017-05-10T08:43:57.402Z,18.70
2017-05-10T08:46:25.323Z,17.90
2017-05-10T08:48:52.770Z,18.50
2017-05-10T08:51:20.553Z,19.80
2017-05-10T08:53:47.777Z,19.70
2017-05-10T08:56:15.071Z,19.90
2017-05-10T08:58:42.275Z,20.30
2017-05-10T09:01:09.509Z,20.70
2017-05-10T09:03:36.871Z,20.60
2017-05-10T09:06:04.323Z,20.20
2017-05-10T09:08:31.588Z,20.60
2017-05-10T09:10:58.787Z,21.20
2017-05-10T09:13:26.065Z,21.20
2017-05-10T09:15:53.996Z,20.00
2017-05-10T09:18:21.246Z,20.40
2017-05-10T09:20:48.538Z,19.50
2017-05-10T09:23:16.471Z,20.20
2017-05-10T09:25:43.708Z,20.20
2017-05-10T09:28:10.928Z,20.50
2017-05-10T09:30:38.117Z,20.10
2017-05-10T09:33:05.457Z,20.60
2017-05-10T09:35:32.753Z,21.20
2017-05-10T09:38:00.675Z,21.30
2017-05-10T09:40:28.080Z,20.50
2017-05-10T09:42:56.521Z,20.70
2017-05-10T09:45:23.696Z,21.10
2017-05-10T09:47:51.164Z,20.00
2017-05-10T09:50:19.193Z,20.30
2017-05-10T09:52:46.369Z,18.80
2017-05-10T09:55:13.599Z,19.50
2017-05-10T09:57:41.015Z,20.70
2017-05-10T10:00:08.305Z,20.00
2017-05-10T10:02:35.514Z,19.60
2017-05-10T10:05:03.092Z,20.10
2017-05-10T10:07:30.440Z,20.60
2017-05-10T10:09:57.676Z,20.70
2017-05-10T10:12:24.981Z,20.60
2017-05-10T10:14:52.233Z,20.80
2017-05-10T10:17:19.433Z,20.60
2017-05-10T10:19:46.735Z,20.60
2017-05-10T10:22:14.030Z,20.60
2017-05-10T10:24:41.329Z,21.00
2017-05-10T10:27:08.580Z,20.20
2017-05-10T10:29:35.919Z,20.70
2017-05-10T10:32:03.157Z,21.30
2017-05-10T10:34:30.459Z,21.30
2017-05-10T10:36:57.607Z,20.10
2017-05-10T10:39:25.030Z,19.50
2017-05-10T10:41:52.252Z,20.50
2017-05-10T10:44:19.512Z,21.40
2017-05-10T10:46:46.796Z,20.90
2017-05-10T10:49:14.057Z,21.90
2017-05-10T10:51:41.228Z,22.10
2017-05-10T10:54:09.263Z,22.00
2017-05-10T10:56:36.631Z,20.80
2017-05-10T10:59:03.854Z,20.70
2017-05-10T11:01:31.172Z,20.90
2017-05-10T11:03:58.351Z,21.40
2017-05-10T11:06:26.109Z,21.70
2017-05-10T11:08:53.374Z,21.20
2017-05-10T11:11:20.656Z,21.80
2017-05-10T11:13:47.916Z,22.60
2017-05-10T11:16:15.349Z,20.80
2017-05-10T11:18:42.745Z,19.90
2017-05-10T11:21:10.693Z,20.60
2017-05-10T11:23:37.901Z,22.00
2017-05-10T11:26:05.120Z,22.60
2017-05-10T11:28:33.220Z,21.70
2017-05-10T11:31:00.421Z,21.10
2017-05-10T11:33:27.601Z,21.20
2017-05-10T11:35:54.962Z,21.10
2017-05-10T11:38:22.176Z,20.60
2017-05-10T11:40:49.400Z,20.40
2017-05-10T11:43:16.966Z,21.40
2017-05-10T11:45:44.136Z,22.20
2017-05-10T11:48:12.102Z,22.20
2017-05-10T11:50:39.411Z,22.60
2017-05-10T11:53:06.859Z,22.80
2017-05-10T11:55:34.177Z,21.20
2017-05-10T11:58:02.184Z,20.70
2017-05-10T12:00:30.189Z,21.70
2017-05-10T12:02:57.439Z,20.90
2017-05-10T12:05:24.693Z,20.30
2017-05-10T12:07:51.883Z,19.80
2017-05-10T12:10:19.059Z,19.20
2017-05-10T12:12:46.396Z,20.80
2017-05-10T12:15:13.604Z,21.00
2017-05-10T12:17:40.790Z,20.10
2017-05-10T12:20:08.122Z,20.10
2017-05-10T12:22:35.361Z,20.30
2017-05-10T12:25:02.600Z,19.80
2017-05-10T12:27:29.891Z,20.10
2017-05-10T12:29:57.052Z,20.70
2017-05-10T12:32:24.221Z,20.40
2017-05-10T12:34:51.475Z,21.20
2017-05-10T12:37:18.719Z,22.00
2017-05-10T12:39:46.016Z,22.30
2017-05-10T12:42:13.287Z,23.40
2017-05-10T12:44:41.345Z,24.50
2017-05-10T12:47:09.326Z,25.70
2017-05-10T12:49:37.421Z,26.30
2017-05-10T12:52:04.603Z,25.50
2017-05-10T12:54:31.894Z,25.40
2017-05-10T12:56:59.081Z,23.20
2017-05-10T12:59:26.331Z,24.00
2017-05-10T13:01:53.852Z,23.40
2017-05-10T13:04:22.014Z,21.70
2017-05-10T13:06:49.386Z,23.30
2017-05-10T13:09:17.624Z,25.60
2017-05-10T13:11:44.811Z,26.50
2017-05-10T13:14:12.865Z,26.60
2017-05-10T13:16:41.136Z,27.70
2017-05-10T13:19:08.605Z,28.60
2017-05-10T13:21:36.773Z,29.60
2017-05-10T13:24:04.723Z,28.50
2017-05-10T13:26:32.078Z,29.10
2017-05-10T13:28:59.439Z,29.30
2017-05-10T13:31:27.564Z,29.80
2017-05-10T13:33:54.797Z,30.00
2017-05-10T13:36:21.994Z,30.20
2017-05-10T13:38:49.208Z,30.70
2017-05-10T13:41:16.445Z,29.80
2017-05-10T13:43:43.708Z,29.20
2017-05-10T13:46:10.997Z,28.50
2017-05-10T13:48:38.179Z,28.20
2017-05-10T13:51:06.220Z,27.60
2017-05-10T13:53:33.430Z,27.90
2017-05-10T13:56:00.715Z,27.90
2017-05-10T13:58:27.942Z,29.10
2017-05-10T14:00:55.141Z,28.90
2017-05-10T14:03:22.414Z,29.50
2017-05-10T14:05:50.428Z,28.90
2017-05-10T14:08:17.577Z,28.70
2017-05-10T14:10:44.864Z,29.70
2017-05-10T14:13:12.059Z,30.50
2017-05-10T14:15:39.305Z,30.20
2017-05-10T14:18:06.646Z,28.80
2017-05-10T14:20:33.948Z,29.90
2017-05-10T14:23:01.289Z,30.50
2017-05-10T14:25:28.433Z,32.00
2017-05-10T14:27:55.611Z,31.80
2017-05-10T14:30:22.957Z,30.50
2017-05-10T14:32:50.205Z,30.20
2017-05-10T14:35:17.418Z,31.40
2017-05-10T14:37:44.776Z,30.90
2017-05-10T14:40:12.037Z,30.70
2017-05-10T14:42:52.768Z,30.50
2017-05-10T14:45:20.724Z,30.70
2017-05-10T14:47:48.875Z,30.60
2017-05-10T14:50:17.084Z,30.80
2017-05-10T14:52:44.257Z,30.90
2017-05-10T14:55:12.461Z,30.60
2017-05-10T14:57:40.428Z,30.40
2017-05-10T15:00:07.694Z,31.00
2017-05-10T15:02:35.499Z,30.60
2017-05-10T15:05:02.747Z,29.70
2017-05-10T15:07:30.698Z,30.90
2017-05-10T15:09:58.627Z,30.10
2017-05-10T15:12:25.905Z,31.20
2017-05-10T15:14:53.126Z,30.90
2017-05-10T15:17:20.309Z,28.70
2017-05-10T15:19:47.571Z,28.20
2017-05-10T15:22:15.541Z,28.40
2017-05-10T15:24:43.709Z,27.70
2017-05-10T15:27:11.028Z,27.30
2017-05-10T15:29:38.299Z,27.70
2017-05-10T15:32:05.543Z,27.70
2017-05-10T15:34:33.083Z,27.30
2017-05-10T15:37:00.341Z,27.50
2017-05-10T15:39:27.511Z,27.20
2017-05-10T15:41:55.052Z,26.80
2017-05-10T15:44:22.380Z,27.50
2017-05-10T15:46:49.583Z,27.80
2017-05-10T15:49:17.661Z,27.60
2017-05-10T15:51:45.693Z,27.90
2017-05-10T15:54:12.867Z,28.40
2017-05-10T15:56:40.021Z,26.80
2017-05-10T15:59:07.273Z,25.90
2017-05-10T16:01:35.297Z,25.10
2017-05-10T16:04:02.582Z,24.00
2017-05-10T16:06:30.354Z,23.30
2017-05-10T16:08:57.674Z,22.80
2017-05-10T16:11:25.060Z,22.20
2017-05-10T16:13:52.295Z,21.80
2017-05-10T16:16:19.516Z,21.30
2017-05-10T16:18:46.728Z,21.10
2017-05-10T16:21:14.664Z,20.60
2017-05-10T16:23:41.855Z,20.80
2017-05-10T16:26:09.891Z,20.80
2017-05-10T16:28:37.084Z,20.80
2017-05-10T16:31:04.344Z,20.80
2017-05-10T16:33:31.569Z,20.70
2017-05-10T16:35:59.593Z,20.60
2017-05-10T16:38:26.768Z,20.50
2017-05-10T16:40:54.964Z,20.30
2017-05-10T16:43:22.946Z,20.30
2017-05-10T16:45:50.182Z,19.90
2017-05-10T16:48:18.133Z,19.70
2017-05-10T16:50:45.517Z,19.50
2017-05-10T16:53:12.734Z,19.50
2017-05-10T16:55:39.971Z,19.40
2017-05-10T16:58:10.215Z,19.30
2017-05-10T17:00:37.508Z,19.30
2017-05-10T17:03:04.768Z,19.30
2017-05-10T17:05:31.968Z,19.10
2017-05-10T17:07:59.241Z,19.10
2017-05-10T17:10:27.381Z,18.90
2017-05-10T17:12:54.700Z,19.00
2017-05-10T17:15:21.932Z,18.90
2017-05-10T17:17:49.198Z,18.80
2017-05-10T17:20:16.396Z,18.80
2017-05-10T17:22:43.623Z,18.70
2017-05-10T17:25:10.860Z,18.70
2017-05-10T17:27:38.016Z,18.60
2017-05-10T17:30:05.250Z,18.50
2017-05-10T17:32:32.428Z,18.50
2017-05-10T17:34:59.648Z,18.40
2017-05-10T17:37:26.928Z,18.10
2017-05-10T17:39:54.257Z,18.10
2017-05-10T17:42:21.426Z,18.10
2017-05-10T17:44:48.644Z,18.00
2017-05-10T17:47:15.887Z,17.90
2017-05-10T17:49:43.142Z,17.90
2017-05-10T17:52:10.694Z,17.70
2017-05-10T17:54:37.857Z,17.70
2017-05-10T17:57:05.117Z,17.60
2017-05-10T17:59:32.289Z,17.60
2017-05-10T18:01:59.564Z,17.40
2017-05-10T18:04:26.712Z,17.40
2017-05-10T18:06:53.896Z,17.30
2017-05-10T18:09:21.251Z,17.10
2017-05-10T18:11:48.517Z,16.80
2017-05-10T18:14:15.749Z,16.50
2017-05-10T18:16:43.152Z,16.10
2017-05-10T18:19:10.429Z,15.90
2017-05-10T18:21:38.475Z,15.70
2017-05-10T18:24:05.866Z,15.70
2017-05-10T18:26:33.821Z,15.70
2017-05-10T18:29:01.910Z,15.70
2017-05-10T18:31:29.381Z,15.50
2017-05-10T18:33:56.583Z,15.40
2017-05-10T18:36:23.873Z,15.30
2017-05-10T18:38:51.995Z,15.20
2017-05-10T18:41:19.287Z,15.00
2017-05-10T18:43:47.342Z,15.00
2017-05-10T18:46:15.509Z,14.80
2017-05-10T18:48:42.835Z,14.70
2017-05-10T18:51:10.109Z,14.40
2017-05-10T18:53:37.392Z,14.20
2017-05-10T18:56:07.342Z,13.90
2017-05-10T18:58:34.765Z,13.70
2017-05-10T19:01:02.753Z,13.60
2017-05-10T19:03:30.032Z,13.50
2017-05-10T19:05:57.368Z,13.40
2017-05-10T19:08:24.765Z,13.30
2017-05-10T19:10:52.227Z,13.30
2017-05-10T19:13:21.345Z,13.30
2017-05-10T19:15:51.182Z,13.30
2017-05-10T19:18:18.621Z,13.30
2017-05-10T19:20:45.929Z,13.20
2017-05-10T19:23:13.419Z,13.10
2017-05-10T19:25:41.475Z,13.10
2017-05-10T19:28:09.161Z,13.10
2017-05-10T19:30:37.016Z,13.00
2017-05-10T19:33:05.009Z,12.90
2017-05-10T19:35:33.261Z,12.80
2017-05-10T19:38:01.569Z,12.80
2017-05-10T19:40:28.926Z,12.70
2017-05-10T19:42:56.291Z,12.50
2017-05-10T19:45:23.511Z,12.40
2017-05-10T19:47:50.711Z,12.20
2017-05-10T19:50:17.990Z,12.10
2017-05-10T19:52:45.562Z,12.00
2017-05-10T19:55:13.236Z,12.00
2017-05-10T19:57:40.442Z,12.00
2017-05-10T20:00:07.654Z,11.80
2017-05-10T20:02:34.985Z,11.70
2017-05-10T20:05:02.278Z,11.60
2017-05-10T20:07:29.666Z,11.60
2017-05-10T20:09:56.858Z,11.60
2017-05-10T20:12:24.104Z,11.50
2017-05-10T20:14:51.420Z,11.40
2017-05-10T20:17:19.377Z,11.20
2017-05-10T20:19:47.434Z,11.20
2017-05-10T20:22:14.896Z,11.10
2017-05-10T20:24:42.102Z,10.90
2017-05-10T20:27:09.354Z,10.90
2017-05-10T20:29:36.568Z,10.80
2017-05-10T20:32:04.502Z,10.60
2017-05-10T20:34:31.757Z,10.60
2017-05-10T20:36:58.973Z,10.50
2017-05-10T20:39:26.254Z,10.60
2017-05-10T20:41:53.496Z,10.50
2017-05-10T20:44:20.699Z,10.60
2017-05-10T20:46:48.780Z,10.50
2017-05-10T20:49:17.106Z,10.50
2017-05-10T20:51:44.378Z,10.40
2017-05-10T20:54:11.589Z,10.20
2017-05-10T20:56:38.861Z,10.10
2017-05-10T20:59:06.187Z,10.10
2017-05-10T21:01:33.658Z,10.00
2017-05-10T21:04:01.085Z,10.00
2017-05-10T21:06:28.428Z,9.90
2017-05-10T21:08:57.250Z,9.90
2017-05-10T21:11:24.895Z,9.90
2017-05-10T21:13:52.179Z,9.90
2017-05-10T21:16:19.783Z,9.90
2017-05-10T21:18:47.733Z,9.90
2017-05-10T21:21:15.012Z,9.90
2017-05-10T21:23:42.456Z,9.90
2017-05-10T21:26:10.534Z,9.90
2017-05-10T21:28:37.895Z,9.90
2017-05-10T21:31:05.193Z,10.00
2017-05-10T21:33:32.509Z,10.00
2017-05-10T21:35:59.723Z,10.00
2017-05-10T21:38:26.952Z,10.00
2017-05-10T21:40:54.411Z,9.90
2017-05-10T21:43:21.690Z,10.10
2017-05-10T21:46:11.785Z,10.20
2017-05-10T21:48:38.989Z,10.20
2017-05-10T21:51:06.172Z,10.10
2017-05-10T21:53:33.558Z,10.10
2017-05-10T21:56:00.900Z,10.00
2017-05-10T21:58:28.888Z,9.90
2017-05-10T22:00:56.071Z,9.80
2017-05-10T22:03:23.544Z,9.80
2017-05-10T22:05:50.862Z,10.00
2017-05-10T22:08:18.231Z,10.00
2017-05-10T22:10:45.447Z,9.90
2017-05-10T22:13:12.629Z,9.90
2017-05-10T22:15:40.101Z,9.80
2017-05-10T22:18:07.294Z,9.80
2017-05-10T22:20:34.626Z,9.80
2017-05-10T22:23:02.574Z,9.70
2017-05-10T22:25:29.812Z,9.80
2017-05-10T22:27:57.024Z,9.90
2017-05-10T22:30:24.273Z,10.00
2017-05-10T22:32:51.468Z,9.90
2017-05-10T22:35:18.645Z,10.10
2017-05-10T22:37:45.836Z,10.00
2017-05-10T22:40:13.051Z,10.00
2017-05-10T22:42:41.925Z,9.90
2017-05-10T22:45:09.386Z,10.00
2017-05-10T22:47:36.563Z,9.90
2017-05-10T22:50:03.739Z,9.70
2017-05-10T22:52:30.988Z,9.70
2017-05-10T22:54:58.193Z,9.80
2017-05-10T22:57:26.097Z,9.80
2017-05-10T22:59:53.306Z,9.80
2017-05-10T23:02:20.526Z,9.70
2017-05-10T23:04:47.723Z,9.60
2017-05-10T23:07:15.694Z,9.60
2017-05-10T23:09:43.652Z,9.80
2017-05-10T23:12:11.617Z,10.10
2017-05-10T23:14:39.501Z,10.10
2017-05-10T23:17:06.762Z,10.20
2017-05-10T23:19:34.085Z,10.30
2017-05-10T23:22:02.046Z,10.20
2017-05-10T23:24:29.251Z,10.20
2017-05-10T23:26:56.527Z,10.20
2017-05-10T23:29:23.767Z,10.20
2017-05-10T23:31:50.955Z,10.10
2017-05-10T23:34:18.176Z,10.10
2017-05-10T23:36:45.340Z,10.10
2017-05-10T23:39:12.571Z,10.00
2017-05-10T23:41:40.692Z,9.90
2017-05-10T23:44:08.722Z,9.90
2017-05-10T23:46:35.904Z,10.00
2017-05-10T23:49:03.849Z,10.10
2017-05-10T23:51:31.127Z,10.20
2017-05-10T23:53:59.184Z,10.10
2017-05-10T23:56:26.425Z,10.00
2017-05-10T23:58:53.628Z,9.80
